sensor_id;sensor_type;location;lat;lon;timestamp;P1;durP1;ratioP1;P2;durP2;ratioP2
54849;SDS011;47660;51.334;12.396;2024-01-27T00:02:06;1.67;;;0.50;;
54849;SDS011;47660;51.334;12.396;2024-01-27T00:04:32;2.13;;;0.60;;
54849;SDS011;47660;51.334;12.396;2024-01-27T00:06:57;1.88;;;0.50;;
54849;SDS011;47660;51.334;12.396;2024-01-27T00:09:22;3.90;;;0.77;;
54849;SDS011;47660;51.334;12.396;2024-01-27T00:11:47;3.70;;;0.63;;
54849;SDS011;47660;51.334;12.396;2024-01-27T00:14:13;3.58;;;0.73;;
54849;SDS011;47660;51.334;12.396;2024-01-27T00:16:38;3.80;;;0.73;;
54849;SDS011;47660;51.334;12.396;2024-01-27T00:19:03;1.15;;;0.50;;
54849;SDS011;47660;51.334;12.396;2024-01-27T00:21:28;3.53;;;0.90;;
54849;SDS011;47660;51.334;12.396;2024-01-27T00:23:54;2.88;;;0.50;;
54849;SDS011;47660;51.334;12.396;2024-01-27T00:26:20;0.73;;;0.45;;
54849;SDS011;47660;51.334;12.396;2024-01-27T00:28:45;2.83;;;0.50;;
54849;SDS011;47660;51.334;12.396;2024-01-27T00:31:10;1.05;;;0.50;;
54849;SDS011;47660;51.334;12.396;2024-01-27T00:33:35;1.45;;;0.47;;
54849;SDS011;47660;51.334;12.396;2024-01-27T00:36:01;2.72;;;0.73;;
54849;SDS011;47660;51.334;12.396;2024-01-27T00:38:26;7.97;;;0.80;;
54849;SDS011;47660;51.334;12.396;2024-01-27T00:40:51;2.58;;;0.40;;
54849;SDS011;47660;51.334;12.396;2024-01-27T00:43:17;2.25;;;0.60;;
54849;SDS011;47660;51.334;12.396;2024-01-27T00:45:42;3.00;;;0.60;;
54849;SDS011;47660;51.334;12.396;2024-01-27T00:48:07;4.32;;;0.90;;
54849;SDS011;47660;51.334;12.396;2024-01-27T00:50:32;8.43;;;0.70;;
54849;SDS011;47660;51.334;12.396;2024-01-27T00:52:57;2.05;;;0.50;;
54849;SDS011;47660;51.334;12.396;2024-01-27T00:55:23;3.00;;;0.80;;
54849;SDS011;47660;51.334;12.396;2024-01-27T00:57:48;3.97;;;0.95;;
54849;SDS011;47660;51.334;12.396;2024-01-27T01:00:13;6.72;;;0.73;;
54849;SDS011;47660;51.334;12.396;2024-01-27T01:02:39;1.33;;;0.55;;
54849;SDS011;47660;51.334;12.396;2024-01-27T01:05:05;3.55;;;0.60;;
54849;SDS011;47660;51.334;12.396;2024-01-27T01:07:31;3.78;;;0.85;;
54849;SDS011;47660;51.334;12.396;2024-01-27T01:09:56;4.82;;;0.80;;
54849;SDS011;47660;51.334;12.396;2024-01-27T01:12:22;2.25;;;0.60;;
54849;SDS011;47660;51.334;12.396;2024-01-27T01:14:47;1.27;;;0.60;;
54849;SDS011;47660;51.334;12.396;2024-01-27T01:17:13;0.68;;;0.50;;
54849;SDS011;47660;51.334;12.396;2024-01-27T01:19:38;3.78;;;0.60;;
54849;SDS011;47660;51.334;12.396;2024-01-27T01:22:04;3.70;;;0.90;;
54849;SDS011;47660;51.334;12.396;2024-01-27T01:24:30;5.57;;;0.65;;
54849;SDS011;47660;51.334;12.396;2024-01-27T01:26:55;3.40;;;0.68;;
54849;SDS011;47660;51.334;12.396;2024-01-27T01:29:21;2.58;;;0.70;;
54849;SDS011;47660;51.334;12.396;2024-01-27T01:31:47;0.80;;;0.30;;
54849;SDS011;47660;51.334;12.396;2024-01-27T01:34:12;4.75;;;0.85;;
54849;SDS011;47660;51.334;12.396;2024-01-27T01:36:37;2.58;;;0.68;;
54849;SDS011;47660;51.334;12.396;2024-01-27T01:39:03;2.88;;;0.60;;
54849;SDS011;47660;51.334;12.396;2024-01-27T01:41:28;4.30;;;0.70;;
54849;SDS011;47660;51.334;12.396;2024-01-27T01:43:53;5.20;;;0.73;;
54849;SDS011;47660;51.334;12.396;2024-01-27T01:46:19;6.00;;;0.75;;
54849;SDS011;47660;51.334;12.396;2024-01-27T01:48:48;2.78;;;0.70;;
54849;SDS011;47660;51.334;12.396;2024-01-27T01:51:14;6.53;;;0.98;;
54849;SDS011;47660;51.334;12.396;2024-01-27T01:53:41;2.33;;;0.85;;
54849;SDS011;47660;51.334;12.396;2024-01-27T01:56:07;5.57;;;0.55;;
54849;SDS011;47660;51.334;12.396;2024-01-27T01:58:33;6.50;;;0.60;;
54849;SDS011;47660;51.334;12.396;2024-01-27T02:00:59;4.10;;;0.70;;
54849;SDS011;47660;51.334;12.396;2024-01-27T02:03:25;3.70;;;0.63;;
54849;SDS011;47660;51.334;12.396;2024-01-27T02:05:51;2.25;;;0.80;;
54849;SDS011;47660;51.334;12.396;2024-01-27T02:08:16;6.97;;;0.75;;
54849;SDS011;47660;51.334;12.396;2024-01-27T02:10:42;11.20;;;1.13;;
54849;SDS011;47660;51.334;12.396;2024-01-27T02:15:43;1.88;;;0.98;;
54849;SDS011;47660;51.334;12.396;2024-01-27T02:18:08;5.60;;;0.60;;
54849;SDS011;47660;51.334;12.396;2024-01-27T02:20:33;4.15;;;0.68;;
54849;SDS011;47660;51.334;12.396;2024-01-27T02:22:59;2.50;;;0.70;;
54849;SDS011;47660;51.334;12.396;2024-01-27T02:25:28;1.77;;;0.77;;
54849;SDS011;47660;51.334;12.396;2024-01-27T02:27:53;5.18;;;1.35;;
54849;SDS011;47660;51.334;12.396;2024-01-27T02:30:19;7.47;;;0.50;;
54849;SDS011;47660;51.334;12.396;2024-01-27T02:32:44;3.67;;;0.80;;
54849;SDS011;47660;51.334;12.396;2024-01-27T02:35:09;2.35;;;0.63;;
54849;SDS011;47660;51.334;12.396;2024-01-27T02:37:34;3.15;;;0.77;;
54849;SDS011;47660;51.334;12.396;2024-01-27T02:40:00;4.60;;;1.00;;
54849;SDS011;47660;51.334;12.396;2024-01-27T02:42:25;1.65;;;0.70;;
54849;SDS011;47660;51.334;12.396;2024-01-27T02:44:50;2.83;;;0.82;;
54849;SDS011;47660;51.334;12.396;2024-01-27T02:47:16;2.95;;;0.70;;
54849;SDS011;47660;51.334;12.396;2024-01-27T02:49:41;6.18;;;0.65;;
54849;SDS011;47660;51.334;12.396;2024-01-27T02:52:06;7.88;;;0.80;;
54849;SDS011;47660;51.334;12.396;2024-01-27T02:54:31;2.08;;;0.80;;
54849;SDS011;47660;51.334;12.396;2024-01-27T02:56:57;1.80;;;0.63;;
54849;SDS011;47660;51.334;12.396;2024-01-27T02:59:22;6.68;;;0.60;;
54849;SDS011;47660;51.334;12.396;2024-01-27T03:01:47;7.70;;;0.70;;
54849;SDS011;47660;51.334;12.396;2024-01-27T03:04:12;7.80;;;0.93;;
54849;SDS011;47660;51.334;12.396;2024-01-27T03:06:38;6.32;;;0.70;;
54849;SDS011;47660;51.334;12.396;2024-01-27T03:09:03;6.47;;;0.65;;
54849;SDS011;47660;51.334;12.396;2024-01-27T03:11:28;3.58;;;0.60;;
54849;SDS011;47660;51.334;12.396;2024-01-27T03:13:54;3.20;;;0.77;;
54849;SDS011;47660;51.334;12.396;2024-01-27T03:16:19;2.53;;;0.75;;
54849;SDS011;47660;51.334;12.396;2024-01-27T03:18:44;11.77;;;1.70;;
54849;SDS011;47660;51.334;12.396;2024-01-27T03:21:10;2.10;;;0.60;;
54849;SDS011;47660;51.334;12.396;2024-01-27T03:23:35;4.43;;;0.80;;
54849;SDS011;47660;51.334;12.396;2024-01-27T03:26:02;3.22;;;0.50;;
54849;SDS011;47660;51.334;12.396;2024-01-27T03:28:28;3.42;;;0.93;;
54849;SDS011;47660;51.334;12.396;2024-01-27T03:30:53;3.13;;;0.68;;
54849;SDS011;47660;51.334;12.396;2024-01-27T03:33:18;5.28;;;0.65;;
54849;SDS011;47660;51.334;12.396;2024-01-27T03:35:43;5.18;;;0.80;;
54849;SDS011;47660;51.334;12.396;2024-01-27T03:38:09;6.07;;;1.00;;
54849;SDS011;47660;51.334;12.396;2024-01-27T03:40:34;1.60;;;0.50;;
54849;SDS011;47660;51.334;12.396;2024-01-27T03:42:59;3.10;;;0.70;;
54849;SDS011;47660;51.334;12.396;2024-01-27T03:45:24;10.70;;;1.05;;
54849;SDS011;47660;51.334;12.396;2024-01-27T03:47:50;2.25;;;0.70;;
54849;SDS011;47660;51.334;12.396;2024-01-27T03:50:15;2.85;;;0.85;;
54849;SDS011;47660;51.334;12.396;2024-01-27T03:52:41;3.45;;;0.70;;
54849;SDS011;47660;51.334;12.396;2024-01-27T03:55:06;5.78;;;0.73;;
54849;SDS011;47660;51.334;12.396;2024-01-27T03:57:31;2.63;;;0.73;;
54849;SDS011;47660;51.334;12.396;2024-01-27T03:59:57;3.65;;;0.63;;
54849;SDS011;47660;51.334;12.396;2024-01-27T04:02:22;2.35;;;1.13;;
54849;SDS011;47660;51.334;12.396;2024-01-27T04:04:47;3.83;;;0.80;;
54849;SDS011;47660;51.334;12.396;2024-01-27T04:07:13;1.73;;;0.60;;
54849;SDS011;47660;51.334;12.396;2024-01-27T04:09:38;3.83;;;1.10;;
54849;SDS011;47660;51.334;12.396;2024-01-27T04:12:03;0.38;;;0.30;;
54849;SDS011;47660;51.334;12.396;2024-01-27T04:14:29;2.40;;;0.57;;
54849;SDS011;47660;51.334;12.396;2024-01-27T04:16:55;2.35;;;0.57;;
54849;SDS011;47660;51.334;12.396;2024-01-27T04:19:20;3.08;;;0.73;;
54849;SDS011;47660;51.334;12.396;2024-01-27T04:21:45;6.20;;;0.68;;
54849;SDS011;47660;51.334;12.396;2024-01-27T04:24:11;5.43;;;0.80;;
54849;SDS011;47660;51.334;12.396;2024-01-27T04:26:36;4.22;;;0.70;;
54849;SDS011;47660;51.334;12.396;2024-01-27T04:29:01;8.55;;;0.90;;
54849;SDS011;47660;51.334;12.396;2024-01-27T04:31:26;4.65;;;0.80;;
54849;SDS011;47660;51.334;12.396;2024-01-27T04:33:52;4.55;;;0.50;;
54849;SDS011;47660;51.334;12.396;2024-01-27T04:36:27;8.63;;;0.80;;
54849;SDS011;47660;51.334;12.396;2024-01-27T04:38:54;3.53;;;0.60;;
54849;SDS011;47660;51.334;12.396;2024-01-27T04:41:19;2.25;;;0.45;;
54849;SDS011;47660;51.334;12.396;2024-01-27T04:43:44;5.93;;;1.05;;
54849;SDS011;47660;51.334;12.396;2024-01-27T04:46:09;2.30;;;0.45;;
54849;SDS011;47660;51.334;12.396;2024-01-27T04:48:35;3.55;;;0.90;;
54849;SDS011;47660;51.334;12.396;2024-01-27T04:51:00;4.13;;;0.68;;
54849;SDS011;47660;51.334;12.396;2024-01-27T04:53:25;9.27;;;1.10;;
54849;SDS011;47660;51.334;12.396;2024-01-27T04:55:50;2.58;;;0.73;;
54849;SDS011;47660;51.334;12.396;2024-01-27T04:58:16;6.30;;;0.90;;
54849;SDS011;47660;51.334;12.396;2024-01-27T05:00:41;4.95;;;0.68;;
54849;SDS011;47660;51.334;12.396;2024-01-27T05:03:06;4.45;;;0.60;;
54849;SDS011;47660;51.334;12.396;2024-01-27T05:05:35;3.03;;;0.70;;
54849;SDS011;47660;51.334;12.396;2024-01-27T05:08:00;3.75;;;0.80;;
54849;SDS011;47660;51.334;12.396;2024-01-27T05:10:26;1.00;;;0.50;;
54849;SDS011;47660;51.334;12.396;2024-01-27T05:12:51;3.60;;;0.70;;
54849;SDS011;47660;51.334;12.396;2024-01-27T05:15:16;4.28;;;0.75;;
54849;SDS011;47660;51.334;12.396;2024-01-27T05:17:42;6.07;;;1.15;;
54849;SDS011;47660;51.334;12.396;2024-01-27T05:20:07;10.88;;;1.48;;
54849;SDS011;47660;51.334;12.396;2024-01-27T05:22:32;8.43;;;0.80;;
54849;SDS011;47660;51.334;12.396;2024-01-27T05:24:58;3.67;;;0.88;;
54849;SDS011;47660;51.334;12.396;2024-01-27T05:27:23;9.10;;;1.33;;
54849;SDS011;47660;51.334;12.396;2024-01-27T05:29:48;3.95;;;0.80;;
54849;SDS011;47660;51.334;12.396;2024-01-27T05:32:14;8.05;;;1.05;;
54849;SDS011;47660;51.334;12.396;2024-01-27T05:34:40;6.13;;;1.20;;
54849;SDS011;47660;51.334;12.396;2024-01-27T05:37:05;4.15;;;0.80;;
54849;SDS011;47660;51.334;12.396;2024-01-27T05:39:30;5.80;;;0.82;;
54849;SDS011;47660;51.334;12.396;2024-01-27T05:41:57;10.85;;;1.10;;
54849;SDS011;47660;51.334;12.396;2024-01-27T05:44:22;10.18;;;1.05;;
54849;SDS011;47660;51.334;12.396;2024-01-27T05:46:47;4.20;;;0.70;;
54849;SDS011;47660;51.334;12.396;2024-01-27T05:49:13;4.30;;;0.85;;
54849;SDS011;47660;51.334;12.396;2024-01-27T05:51:38;3.33;;;0.70;;
54849;SDS011;47660;51.334;12.396;2024-01-27T05:54:03;2.58;;;0.68;;
54849;SDS011;47660;51.334;12.396;2024-01-27T05:56:29;3.72;;;0.82;;
54849;SDS011;47660;51.334;12.396;2024-01-27T05:58:54;4.88;;;1.00;;
54849;SDS011;47660;51.334;12.396;2024-01-27T06:01:19;3.35;;;1.00;;
54849;SDS011;47660;51.334;12.396;2024-01-27T06:03:45;5.05;;;1.15;;
54849;SDS011;47660;51.334;12.396;2024-01-27T06:06:10;2.55;;;0.70;;
54849;SDS011;47660;51.334;12.396;2024-01-27T06:08:35;8.07;;;1.55;;
54849;SDS011;47660;51.334;12.396;2024-01-27T06:11:01;4.30;;;1.10;;
54849;SDS011;47660;51.334;12.396;2024-01-27T06:13:28;7.15;;;1.02;;
54849;SDS011;47660;51.334;12.396;2024-01-27T06:15:53;3.53;;;0.70;;
54849;SDS011;47660;51.334;12.396;2024-01-27T06:18:18;3.13;;;0.80;;
54849;SDS011;47660;51.334;12.396;2024-01-27T06:20:44;4.03;;;0.75;;
54849;SDS011;47660;51.334;12.396;2024-01-27T06:23:09;6.57;;;1.08;;
54849;SDS011;47660;51.334;12.396;2024-01-27T06:25:34;5.20;;;1.25;;
54849;SDS011;47660;51.334;12.396;2024-01-27T06:28:00;5.00;;;0.80;;
54849;SDS011;47660;51.334;12.396;2024-01-27T06:30:25;5.10;;;0.47;;
54849;SDS011;47660;51.334;12.396;2024-01-27T06:32:50;3.53;;;0.95;;
54849;SDS011;47660;51.334;12.396;2024-01-27T06:35:15;2.97;;;0.70;;
54849;SDS011;47660;51.334;12.396;2024-01-27T06:37:41;2.13;;;0.93;;
54849;SDS011;47660;51.334;12.396;2024-01-27T06:40:06;7.88;;;0.98;;
54849;SDS011;47660;51.334;12.396;2024-01-27T06:42:34;4.45;;;0.95;;
54849;SDS011;47660;51.334;12.396;2024-01-27T06:44:59;3.60;;;0.88;;
54849;SDS011;47660;51.334;12.396;2024-01-27T06:47:24;5.75;;;1.10;;
54849;SDS011;47660;51.334;12.396;2024-01-27T06:49:50;7.32;;;1.23;;
54849;SDS011;47660;51.334;12.396;2024-01-27T06:52:18;16.67;;;1.20;;
54849;SDS011;47660;51.334;12.396;2024-01-27T06:54:43;4.53;;;0.80;;
54849;SDS011;47660;51.334;12.396;2024-01-27T06:57:22;6.07;;;0.90;;
54849;SDS011;47660;51.334;12.396;2024-01-27T06:59:49;3.80;;;1.08;;
54849;SDS011;47660;51.334;12.396;2024-01-27T07:02:28;5.28;;;0.95;;
54849;SDS011;47660;51.334;12.396;2024-01-27T07:04:54;7.75;;;0.95;;
54849;SDS011;47660;51.334;12.396;2024-01-27T07:07:21;5.40;;;0.82;;
54849;SDS011;47660;51.334;12.396;2024-01-27T07:09:49;5.82;;;0.82;;
54849;SDS011;47660;51.334;12.396;2024-01-27T07:12:14;5.15;;;1.08;;
54849;SDS011;47660;51.334;12.396;2024-01-27T07:14:39;7.18;;;1.15;;
54849;SDS011;47660;51.334;12.396;2024-01-27T07:17:05;4.03;;;0.88;;
54849;SDS011;47660;51.334;12.396;2024-01-27T07:19:30;3.55;;;0.65;;
54849;SDS011;47660;51.334;12.396;2024-01-27T07:21:56;3.40;;;1.00;;
54849;SDS011;47660;51.334;12.396;2024-01-27T07:24:21;9.25;;;1.38;;
54849;SDS011;47660;51.334;12.396;2024-01-27T07:26:46;3.15;;;0.77;;
54849;SDS011;47660;51.334;12.396;2024-01-27T07:29:12;2.15;;;0.85;;
54849;SDS011;47660;51.334;12.396;2024-01-27T07:31:37;5.35;;;0.98;;
54849;SDS011;47660;51.334;12.396;2024-01-27T07:34:02;4.60;;;1.00;;
54849;SDS011;47660;51.334;12.396;2024-01-27T07:36:29;4.00;;;0.88;;
54849;SDS011;47660;51.334;12.396;2024-01-27T07:38:57;3.97;;;0.98;;
54849;SDS011;47660;51.334;12.396;2024-01-27T07:41:22;3.42;;;1.05;;
54849;SDS011;47660;51.334;12.396;2024-01-27T07:43:47;3.35;;;0.80;;
54849;SDS011;47660;51.334;12.396;2024-01-27T07:46:13;1.83;;;0.90;;
54849;SDS011;47660;51.334;12.396;2024-01-27T07:48:38;11.27;;;1.25;;
54849;SDS011;47660;51.334;12.396;2024-01-27T07:51:03;5.70;;;1.60;;
54849;SDS011;47660;51.334;12.396;2024-01-27T07:53:29;5.47;;;1.20;;
54849;SDS011;47660;51.334;12.396;2024-01-27T07:55:54;4.38;;;1.00;;
54849;SDS011;47660;51.334;12.396;2024-01-27T07:58:21;9.80;;;1.45;;
54849;SDS011;47660;51.334;12.396;2024-01-27T08:00:46;6.70;;;0.85;;
54849;SDS011;47660;51.334;12.396;2024-01-27T08:03:11;10.90;;;1.52;;
54849;SDS011;47660;51.334;12.396;2024-01-27T08:05:37;7.85;;;1.52;;
54849;SDS011;47660;51.334;12.396;2024-01-27T08:08:02;11.45;;;1.63;;
54849;SDS011;47660;51.334;12.396;2024-01-27T08:10:28;9.50;;;1.42;;
54849;SDS011;47660;51.334;12.396;2024-01-27T08:12:54;8.38;;;1.55;;
54849;SDS011;47660;51.334;12.396;2024-01-27T08:15:19;2.63;;;1.23;;
54849;SDS011;47660;51.334;12.396;2024-01-27T08:17:44;9.43;;;1.52;;
54849;SDS011;47660;51.334;12.396;2024-01-27T08:20:10;4.18;;;1.60;;
54849;SDS011;47660;51.334;12.396;2024-01-27T08:22:35;7.18;;;2.10;;
54849;SDS011;47660;51.334;12.396;2024-01-27T08:25:00;4.82;;;1.85;;
54849;SDS011;47660;51.334;12.396;2024-01-27T08:27:26;6.25;;;1.83;;
54849;SDS011;47660;51.334;12.396;2024-01-27T08:29:51;9.63;;;2.08;;
54849;SDS011;47660;51.334;12.396;2024-01-27T08:32:16;7.45;;;1.90;;
54849;SDS011;47660;51.334;12.396;2024-01-27T08:34:41;9.45;;;1.40;;
54849;SDS011;47660;51.334;12.396;2024-01-27T08:37:19;7.85;;;1.27;;
54849;SDS011;47660;51.334;12.396;2024-01-27T08:39:44;4.30;;;1.50;;
54849;SDS011;47660;51.334;12.396;2024-01-27T08:42:10;7.65;;;1.35;;
54849;SDS011;47660;51.334;12.396;2024-01-27T08:44:37;5.32;;;1.38;;
54849;SDS011;47660;51.334;12.396;2024-01-27T08:47:02;3.88;;;1.40;;
54849;SDS011;47660;51.334;12.396;2024-01-27T08:49:28;6.78;;;1.55;;
54849;SDS011;47660;51.334;12.396;2024-01-27T08:51:53;4.93;;;1.67;;
54849;SDS011;47660;51.334;12.396;2024-01-27T08:54:20;4.70;;;1.27;;
54849;SDS011;47660;51.334;12.396;2024-01-27T08:56:45;7.30;;;1.60;;
54849;SDS011;47660;51.334;12.396;2024-01-27T08:59:10;6.93;;;1.90;;
54849;SDS011;47660;51.334;12.396;2024-01-27T09:01:36;10.45;;;1.70;;
54849;SDS011;47660;51.334;12.396;2024-01-27T09:04:01;7.70;;;1.58;;
54849;SDS011;47660;51.334;12.396;2024-01-27T09:06:29;6.47;;;1.40;;
54849;SDS011;47660;51.334;12.396;2024-01-27T09:08:55;7.82;;;1.92;;
54849;SDS011;47660;51.334;12.396;2024-01-27T09:11:20;10.10;;;1.13;;
54849;SDS011;47660;51.334;12.396;2024-01-27T09:13:47;4.07;;;1.55;;
54849;SDS011;47660;51.334;12.396;2024-01-27T09:16:13;7.32;;;2.00;;
54849;SDS011;47660;51.334;12.396;2024-01-27T09:18:39;9.98;;;2.22;;
54849;SDS011;47660;51.334;12.396;2024-01-27T09:21:04;7.07;;;1.48;;
54849;SDS011;47660;51.334;12.396;2024-01-27T09:23:30;11.38;;;1.80;;
54849;SDS011;47660;51.334;12.396;2024-01-27T09:25:55;11.52;;;1.83;;
54849;SDS011;47660;51.334;12.396;2024-01-27T09:28:20;6.82;;;2.00;;
54849;SDS011;47660;51.334;12.396;2024-01-27T09:30:46;3.38;;;1.48;;
54849;SDS011;47660;51.334;12.396;2024-01-27T09:33:11;10.02;;;2.10;;
54849;SDS011;47660;51.334;12.396;2024-01-27T09:35:36;4.47;;;1.48;;
54849;SDS011;47660;51.334;12.396;2024-01-27T09:38:02;4.07;;;1.70;;
54849;SDS011;47660;51.334;12.396;2024-01-27T09:40:27;7.82;;;2.03;;
54849;SDS011;47660;51.334;12.396;2024-01-27T09:42:53;10.80;;;2.15;;
54849;SDS011;47660;51.334;12.396;2024-01-27T09:45:24;5.75;;;1.83;;
54849;SDS011;47660;51.334;12.396;2024-01-27T09:47:49;7.50;;;2.20;;
54849;SDS011;47660;51.334;12.396;2024-01-27T09:50:17;8.48;;;2.10;;
54849;SDS011;47660;51.334;12.396;2024-01-27T09:52:43;4.68;;;1.70;;
54849;SDS011;47660;51.334;12.396;2024-01-27T09:55:08;4.72;;;1.95;;
54849;SDS011;47660;51.334;12.396;2024-01-27T09:57:35;5.78;;;2.03;;
54849;SDS011;47660;51.334;12.396;2024-01-27T10:00:03;11.15;;;2.15;;
54849;SDS011;47660;51.334;12.396;2024-01-27T10:02:30;3.20;;;1.80;;
54849;SDS011;47660;51.334;12.396;2024-01-27T10:05:00;6.50;;;1.83;;
54849;SDS011;47660;51.334;12.396;2024-01-27T10:07:26;10.05;;;2.63;;
54849;SDS011;47660;51.334;12.396;2024-01-27T10:09:52;5.47;;;2.10;;
54849;SDS011;47660;51.334;12.396;2024-01-27T10:12:18;9.20;;;2.58;;
54849;SDS011;47660;51.334;12.396;2024-01-27T10:14:45;7.35;;;1.80;;
54849;SDS011;47660;51.334;12.396;2024-01-27T10:17:19;5.13;;;1.92;;
54849;SDS011;47660;51.334;12.396;2024-01-27T10:19:47;8.52;;;2.35;;
54849;SDS011;47660;51.334;12.396;2024-01-27T10:22:12;5.45;;;2.10;;
54849;SDS011;47660;51.334;12.396;2024-01-27T10:24:38;7.68;;;1.98;;
54849;SDS011;47660;51.334;12.396;2024-01-27T10:27:03;6.15;;;2.00;;
54849;SDS011;47660;51.334;12.396;2024-01-27T10:29:29;9.80;;;2.13;;
54849;SDS011;47660;51.334;12.396;2024-01-27T10:31:55;6.43;;;1.75;;
54849;SDS011;47660;51.334;12.396;2024-01-27T10:34:21;7.88;;;2.35;;
54849;SDS011;47660;51.334;12.396;2024-01-27T10:36:46;5.78;;;1.63;;
54849;SDS011;47660;51.334;12.396;2024-01-27T10:39:21;6.63;;;1.98;;
54849;SDS011;47660;51.334;12.396;2024-01-27T10:44:13;6.63;;;2.08;;
54849;SDS011;47660;51.334;12.396;2024-01-27T10:46:41;6.43;;;2.00;;
54849;SDS011;47660;51.334;12.396;2024-01-27T10:49:10;12.18;;;2.47;;
54849;SDS011;47660;51.334;12.396;2024-01-27T10:51:37;10.70;;;2.05;;
54849;SDS011;47660;51.334;12.396;2024-01-27T10:54:08;10.55;;;2.40;;
54849;SDS011;47660;51.334;12.396;2024-01-27T10:56:39;9.07;;;2.22;;
54849;SDS011;47660;51.334;12.396;2024-01-27T10:59:07;7.57;;;2.20;;
54849;SDS011;47660;51.334;12.396;2024-01-27T11:01:35;7.35;;;2.28;;
54849;SDS011;47660;51.334;12.396;2024-01-27T11:04:03;7.32;;;2.17;;
54849;SDS011;47660;51.334;12.396;2024-01-27T11:06:31;10.43;;;2.17;;
54849;SDS011;47660;51.334;12.396;2024-01-27T11:08:58;6.43;;;2.03;;
54849;SDS011;47660;51.334;12.396;2024-01-27T11:11:24;8.30;;;2.17;;
54849;SDS011;47660;51.334;12.396;2024-01-27T11:13:50;8.35;;;1.95;;
54849;SDS011;47660;51.334;12.396;2024-01-27T11:16:16;6.70;;;2.08;;
54849;SDS011;47660;51.334;12.396;2024-01-27T11:18:43;8.52;;;2.10;;
54849;SDS011;47660;51.334;12.396;2024-01-27T11:21:14;5.65;;;1.90;;
54849;SDS011;47660;51.334;12.396;2024-01-27T11:23:41;11.00;;;2.28;;
54849;SDS011;47660;51.334;12.396;2024-01-27T11:26:07;7.88;;;2.00;;
54849;SDS011;47660;51.334;12.396;2024-01-27T11:28:33;10.15;;;2.22;;
54849;SDS011;47660;51.334;12.396;2024-01-27T11:31:02;9.35;;;2.45;;
54849;SDS011;47660;51.334;12.396;2024-01-27T11:33:29;5.00;;;1.83;;
54849;SDS011;47660;51.334;12.396;2024-01-27T11:36:00;9.75;;;1.92;;
54849;SDS011;47660;51.334;12.396;2024-01-27T11:38:33;3.65;;;1.75;;
54849;SDS011;47660;51.334;12.396;2024-01-27T11:41:01;4.30;;;1.95;;
54849;SDS011;47660;51.334;12.396;2024-01-27T11:43:26;6.93;;;2.33;;
54849;SDS011;47660;51.334;12.396;2024-01-27T11:45:58;8.13;;;1.98;;
54849;SDS011;47660;51.334;12.396;2024-01-27T11:48:24;5.38;;;1.65;;
54849;SDS011;47660;51.334;12.396;2024-01-27T11:51:01;7.38;;;2.17;;
54849;SDS011;47660;51.334;12.396;2024-01-27T11:53:36;7.00;;;2.13;;
54849;SDS011;47660;51.334;12.396;2024-01-27T11:56:02;6.45;;;2.20;;
54849;SDS011;47660;51.334;12.396;2024-01-27T11:58:29;5.28;;;1.90;;
54849;SDS011;47660;51.334;12.396;2024-01-27T12:00:55;7.20;;;1.52;;
54849;SDS011;47660;51.334;12.396;2024-01-27T12:03:21;3.90;;;1.67;;
54849;SDS011;47660;51.334;12.396;2024-01-27T12:05:47;6.90;;;2.45;;
54849;SDS011;47660;51.334;12.396;2024-01-27T12:08:12;5.90;;;1.90;;
54849;SDS011;47660;51.334;12.396;2024-01-27T12:10:41;8.18;;;2.00;;
54849;SDS011;47660;51.334;12.396;2024-01-27T12:13:06;5.77;;;1.73;;
54849;SDS011;47660;51.334;12.396;2024-01-27T12:15:32;3.75;;;1.50;;
54849;SDS011;47660;51.334;12.396;2024-01-27T12:17:57;6.97;;;1.60;;
54849;SDS011;47660;51.334;12.396;2024-01-27T12:20:23;6.97;;;2.05;;
54849;SDS011;47660;51.334;12.396;2024-01-27T12:22:48;7.80;;;2.17;;
54849;SDS011;47660;51.334;12.396;2024-01-27T12:25:20;7.40;;;1.88;;
54849;SDS011;47660;51.334;12.396;2024-01-27T12:27:46;6.00;;;1.50;;
54849;SDS011;47660;51.334;12.396;2024-01-27T12:30:11;7.22;;;2.08;;
54849;SDS011;47660;51.334;12.396;2024-01-27T12:32:37;6.30;;;1.70;;
54849;SDS011;47660;51.334;12.396;2024-01-27T12:35:05;6.07;;;1.30;;
54849;SDS011;47660;51.334;12.396;2024-01-27T12:37:32;4.35;;;1.42;;
54849;SDS011;47660;51.334;12.396;2024-01-27T12:39:57;5.87;;;1.60;;
54849;SDS011;47660;51.334;12.396;2024-01-27T12:42:22;5.10;;;1.27;;
54849;SDS011;47660;51.334;12.396;2024-01-27T12:44:48;5.63;;;1.42;;
54849;SDS011;47660;51.334;12.396;2024-01-27T12:47:13;7.53;;;1.60;;
54849;SDS011;47660;51.334;12.396;2024-01-27T12:49:39;4.00;;;1.30;;
54849;SDS011;47660;51.334;12.396;2024-01-27T12:52:06;6.68;;;2.00;;
54849;SDS011;47660;51.334;12.396;2024-01-27T12:54:32;5.60;;;1.50;;
54849;SDS011;47660;51.334;12.396;2024-01-27T12:56:57;5.07;;;2.00;;
54849;SDS011;47660;51.334;12.396;2024-01-27T12:59:23;5.90;;;1.35;;
54849;SDS011;47660;51.334;12.396;2024-01-27T13:01:48;5.47;;;1.42;;
54849;SDS011;47660;51.334;12.396;2024-01-27T13:04:14;6.63;;;1.67;;
54849;SDS011;47660;51.334;12.396;2024-01-27T13:06:39;6.30;;;1.50;;
54849;SDS011;47660;51.334;12.396;2024-01-27T13:09:05;9.93;;;1.60;;
54849;SDS011;47660;51.334;12.396;2024-01-27T13:11:30;3.72;;;1.45;;
54849;SDS011;47660;51.334;12.396;2024-01-27T13:13:56;3.53;;;1.10;;
54849;SDS011;47660;51.334;12.396;2024-01-27T13:16:21;5.63;;;1.40;;
54849;SDS011;47660;51.334;12.396;2024-01-27T13:18:47;7.53;;;1.45;;
54849;SDS011;47660;51.334;12.396;2024-01-27T13:21:12;6.60;;;1.50;;
54849;SDS011;47660;51.334;12.396;2024-01-27T13:23:38;6.00;;;1.40;;
54849;SDS011;47660;51.334;12.396;2024-01-27T13:26:03;5.00;;;1.42;;
54849;SDS011;47660;51.334;12.396;2024-01-27T13:28:29;3.85;;;1.30;;
54849;SDS011;47660;51.334;12.396;2024-01-27T13:30:54;6.93;;;1.40;;
54849;SDS011;47660;51.334;12.396;2024-01-27T13:33:20;5.72;;;1.48;;
54849;SDS011;47660;51.334;12.396;2024-01-27T13:35:46;3.97;;;1.48;;
54849;SDS011;47660;51.334;12.396;2024-01-27T13:38:15;5.93;;;1.20;;
54849;SDS011;47660;51.334;12.396;2024-01-27T13:40:41;6.63;;;1.55;;
54849;SDS011;47660;51.334;12.396;2024-01-27T13:43:07;5.10;;;1.33;;
54849;SDS011;47660;51.334;12.396;2024-01-27T13:45:33;3.85;;;1.38;;
54849;SDS011;47660;51.334;12.396;2024-01-27T13:47:59;7.60;;;1.40;;
54849;SDS011;47660;51.334;12.396;2024-01-27T13:50:25;6.20;;;1.70;;
54849;SDS011;47660;51.334;12.396;2024-01-27T13:52:50;6.93;;;1.40;;
54849;SDS011;47660;51.334;12.396;2024-01-27T13:55:16;9.77;;;1.48;;
54849;SDS011;47660;51.334;12.396;2024-01-27T13:57:41;3.10;;;1.25;;
54849;SDS011;47660;51.334;12.396;2024-01-27T14:00:09;7.25;;;1.30;;
54849;SDS011;47660;51.334;12.396;2024-01-27T14:02:35;3.17;;;1.10;;
54849;SDS011;47660;51.334;12.396;2024-01-27T14:05:00;9.45;;;1.63;;
54849;SDS011;47660;51.334;12.396;2024-01-27T14:07:26;3.20;;;1.13;;
54849;SDS011;47660;51.334;12.396;2024-01-27T14:09:51;4.40;;;1.40;;
54849;SDS011;47660;51.334;12.396;2024-01-27T14:12:19;7.88;;;1.42;;
54849;SDS011;47660;51.334;12.396;2024-01-27T14:14:44;3.92;;;1.02;;
54849;SDS011;47660;51.334;12.396;2024-01-27T14:17:10;8.88;;;1.00;;
54849;SDS011;47660;51.334;12.396;2024-01-27T14:19:35;3.03;;;1.00;;
54849;SDS011;47660;51.334;12.396;2024-01-27T14:22:02;6.07;;;1.00;;
54849;SDS011;47660;51.334;12.396;2024-01-27T14:24:27;3.35;;;1.20;;
54849;SDS011;47660;51.334;12.396;2024-01-27T14:26:52;4.97;;;0.90;;
54849;SDS011;47660;51.334;12.396;2024-01-27T14:29:18;4.43;;;0.80;;
54849;SDS011;47660;51.334;12.396;2024-01-27T14:31:43;3.13;;;1.05;;